Aérodrome :
LOGIN :

S'inscrire | Disclaimer

   EN    FR    IT 

 










Légende :    VFR   VFR Marginal   IFR   IFR Intensif   IFR Très Intensif
Visi : 
Plafond : 
>= 8 km
>= 3000ft
5 à 8 km
1000 à 3000 ft
1500m à 5 km
500 à 1000 ft
800 à 1500m
200 à 500 ft
< 800m
< 200 ft
Symboles :   Orages  Brouillard  Fortes neiges  Fortes précipitations  Vent > 20 kt
SIGMETs :   Divers  Orages  Givrage  Turbulence  Onde Orograph.  Cendres Volcan.






- Altitude de l'aérodrome : 1234 ft
- Code IATA : LUX


ELLX - Luxembourg Findel

DERNIER METAR :
  • 040020Z AUTO 35008KT 9999 NCD 15/09 Q1020 NOSIG

METARs EXPIRÉS :
  • 032350Z AUTO 34008KT 9999 NCD 16/09 Q1021 NOSIG
  • 031520Z 27010KT 230V300 CAVOK 25/11 Q1018 NOSIG
  • 032320Z AUTO 34006KT 9999 NCD 16/09 Q1021 NOSIG
  • 032220Z 34006KT CAVOK 17/09 Q1020 NOSIG
  • 032150Z AUTO 34007KT 9999 NCD 17/10 Q1020 NOSIG

TAF TAF ELLX
Valide du 04 à 00h jusqu'au 05 à 06h UTC


032300Z 0400/0506 34007KT CAVOK
ATIS : +352 4798 27300
Météo : +352 4798 27010 / 27050



MET'MAP, la Météo Aéronautique d'un coup d'oeil ! - Copyright ORBIFLY Décembre 2007 - Disclaimer

ORBIFLY MET'MAP TEAM :

Programmation & Développement : Alexandra Zaïnal
Sur une idée originale de : Baudouin d'Aumeries
Soutien technique & logistique : Manuel Goepfert
Assistance : Marc-Olivier Méhu




SOURCES & CREDITS :

   NOAA